sensor_id;sensor_type;location;lat;lon;timestamp;P1;durP1;ratioP1;P2;durP2;ratioP2
11418;SDS011;32800;44.876;13.880;2023-06-10T00:02:21;2.83;;;2.40;;
11418;SDS011;32800;44.876;13.880;2023-06-10T00:04:46;2.88;;;2.42;;
11418;SDS011;32800;44.876;13.880;2023-06-10T00:07:12;4.60;;;2.70;;
11418;SDS011;32800;44.876;13.880;2023-06-10T00:09:38;2.53;;;2.33;;
11418;SDS011;32800;44.876;13.880;2023-06-10T00:12:07;2.75;;;2.55;;
11418;SDS011;32800;44.876;13.880;2023-06-10T00:14:37;3.03;;;2.60;;
11418;SDS011;32800;44.876;13.880;2023-06-10T00:17:04;3.33;;;2.28;;
11418;SDS011;32800;44.876;13.880;2023-06-10T00:19:30;3.75;;;2.50;;
11418;SDS011;32800;44.876;13.880;2023-06-10T00:21:59;4.50;;;2.60;;
11418;SDS011;32800;44.876;13.880;2023-06-10T00:24:24;2.83;;;2.63;;
11418;SDS011;32800;44.876;13.880;2023-06-10T00:26:50;2.58;;;2.30;;
11418;SDS011;32800;44.876;13.880;2023-06-10T00:29:15;3.05;;;2.75;;
11418;SDS011;32800;44.876;13.880;2023-06-10T00:31:41;2.60;;;2.40;;
11418;SDS011;32800;44.876;13.880;2023-06-10T00:34:07;2.55;;;2.35;;
11418;SDS011;32800;44.876;13.880;2023-06-10T00:36:33;2.58;;;2.38;;
11418;SDS011;32800;44.876;13.880;2023-06-10T00:38:58;2.63;;;2.42;;
11418;SDS011;32800;44.876;13.880;2023-06-10T00:41:24;11.15;;;2.75;;
11418;SDS011;32800;44.876;13.880;2023-06-10T00:43:51;2.60;;;2.40;;
11418;SDS011;32800;44.876;13.880;2023-06-10T00:46:17;2.38;;;2.17;;
11418;SDS011;32800;44.876;13.880;2023-06-10T00:48:44;2.75;;;2.55;;
11418;SDS011;32800;44.876;13.880;2023-06-10T00:51:10;2.38;;;2.25;;
11418;SDS011;32800;44.876;13.880;2023-06-10T00:53:37;2.60;;;2.40;;
11418;SDS011;32800;44.876;13.880;2023-06-10T00:56:04;2.60;;;2.40;;
11418;SDS011;32800;44.876;13.880;2023-06-10T00:58:30;2.50;;;2.30;;
11418;SDS011;32800;44.876;13.880;2023-06-10T01:00:56;4.53;;;2.88;;
11418;SDS011;32800;44.876;13.880;2023-06-10T01:03:22;2.60;;;2.40;;
11418;SDS011;32800;44.876;13.880;2023-06-10T01:05:50;2.42;;;2.22;;
11418;SDS011;32800;44.876;13.880;2023-06-10T01:10:53;3.08;;;2.40;;
11418;SDS011;32800;44.876;13.880;2023-06-10T01:13:20;2.60;;;2.40;;
11418;SDS011;32800;44.876;13.880;2023-06-10T01:15:49;2.50;;;2.30;;
11418;SDS011;32800;44.876;13.880;2023-06-10T01:18:15;2.20;;;2.00;;
11418;SDS011;32800;44.876;13.880;2023-06-10T01:20:43;2.28;;;2.17;;
11418;SDS011;32800;44.876;13.880;2023-06-10T01:23:11;3.38;;;2.58;;
11418;SDS011;32800;44.876;13.880;2023-06-10T01:25:38;2.97;;;2.45;;
11418;SDS011;32800;44.876;13.880;2023-06-10T01:33:32;2.55;;;2.35;;
11418;SDS011;32800;44.876;13.880;2023-06-10T01:36:00;2.83;;;2.38;;
11418;SDS011;32800;44.876;13.880;2023-06-10T01:38:28;2.40;;;2.20;;
11418;SDS011;32800;44.876;13.880;2023-06-10T01:40:56;4.13;;;2.10;;
11418;SDS011;32800;44.876;13.880;2023-06-10T01:43:21;2.10;;;1.98;;
11418;SDS011;32800;44.876;13.880;2023-06-10T01:45:47;2.67;;;2.45;;
11418;SDS011;32800;44.876;13.880;2023-06-10T01:48:12;2.20;;;2.10;;
11418;SDS011;32800;44.876;13.880;2023-06-10T01:50:38;2.97;;;2.30;;
11418;SDS011;32800;44.876;13.880;2023-06-10T01:53:04;2.60;;;2.40;;
11418;SDS011;32800;44.876;13.880;2023-06-10T01:55:32;2.70;;;2.50;;
11418;SDS011;32800;44.876;13.880;2023-06-10T01:57:58;2.50;;;2.30;;
11418;SDS011;32800;44.876;13.880;2023-06-10T02:00:23;2.40;;;2.20;;
11418;SDS011;32800;44.876;13.880;2023-06-10T02:02:49;2.30;;;2.10;;
11418;SDS011;32800;44.876;13.880;2023-06-10T02:05:15;2.65;;;2.45;;
11418;SDS011;32800;44.876;13.880;2023-06-10T02:07:40;2.55;;;2.35;;
11418;SDS011;32800;44.876;13.880;2023-06-10T02:10:06;2.50;;;2.30;;
11418;SDS011;32800;44.876;13.880;2023-06-10T02:12:32;2.35;;;2.15;;
11418;SDS011;32800;44.876;13.880;2023-06-10T02:14:57;2.50;;;2.30;;
11418;SDS011;32800;44.876;13.880;2023-06-10T02:17:23;2.35;;;2.15;;
11418;SDS011;32800;44.876;13.880;2023-06-10T02:19:49;2.45;;;2.25;;
11418;SDS011;32800;44.876;13.880;2023-06-10T02:22:21;2.33;;;1.95;;
11418;SDS011;32800;44.876;13.880;2023-06-10T02:24:47;2.40;;;2.17;;
11418;SDS011;32800;44.876;13.880;2023-06-10T02:27:12;2.05;;;1.95;;
11418;SDS011;32800;44.876;13.880;2023-06-10T02:29:38;2.45;;;2.20;;
11418;SDS011;32800;44.876;13.880;2023-06-10T02:32:04;3.10;;;2.28;;
11418;SDS011;32800;44.876;13.880;2023-06-10T02:34:30;2.40;;;2.20;;
11418;SDS011;32800;44.876;13.880;2023-06-10T02:36:56;2.60;;;2.40;;
11418;SDS011;32800;44.876;13.880;2023-06-10T02:39:22;2.50;;;2.30;;
11418;SDS011;32800;44.876;13.880;2023-06-10T02:41:47;4.15;;;2.38;;
11418;SDS011;32800;44.876;13.880;2023-06-10T02:44:13;2.47;;;2.28;;
11418;SDS011;32800;44.876;13.880;2023-06-10T02:46:38;2.22;;;2.03;;
11418;SDS011;32800;44.876;13.880;2023-06-10T02:49:04;7.75;;;2.60;;
11418;SDS011;32800;44.876;13.880;2023-06-10T02:51:29;2.30;;;2.10;;
11418;SDS011;32800;44.876;13.880;2023-06-10T02:53:55;2.35;;;2.15;;
11418;SDS011;32800;44.876;13.880;2023-06-10T02:56:20;3.03;;;2.42;;
11418;SDS011;32800;44.876;13.880;2023-06-10T02:58:46;2.50;;;2.30;;
11418;SDS011;32800;44.876;13.880;2023-06-10T03:01:13;2.58;;;2.15;;
11418;SDS011;32800;44.876;13.880;2023-06-10T03:03:39;2.67;;;2.38;;
11418;SDS011;32800;44.876;13.880;2023-06-10T03:06:07;2.35;;;2.25;;
11418;SDS011;32800;44.876;13.880;2023-06-10T03:08:35;2.33;;;2.03;;
11418;SDS011;32800;44.876;13.880;2023-06-10T03:11:02;2.35;;;2.15;;
11418;SDS011;32800;44.876;13.880;2023-06-10T03:13:27;2.50;;;2.30;;
11418;SDS011;32800;44.876;13.880;2023-06-10T03:15:53;2.28;;;2.17;;
11418;SDS011;32800;44.876;13.880;2023-06-10T03:18:18;3.10;;;2.22;;
11418;SDS011;32800;44.876;13.880;2023-06-10T03:20:44;2.92;;;2.13;;
11418;SDS011;32800;44.876;13.880;2023-06-10T03:23:09;2.22;;;2.03;;
11418;SDS011;32800;44.876;13.880;2023-06-10T03:25:35;5.10;;;2.13;;
11418;SDS011;32800;44.876;13.880;2023-06-10T03:28:00;2.30;;;2.10;;
11418;SDS011;32800;44.876;13.880;2023-06-10T03:30:27;2.20;;;2.10;;
11418;SDS011;32800;44.876;13.880;2023-06-10T03:32:52;2.10;;;2.00;;
11418;SDS011;32800;44.876;13.880;2023-06-10T03:35:18;2.40;;;2.20;;
11418;SDS011;32800;44.876;13.880;2023-06-10T03:37:44;2.30;;;2.10;;
11418;SDS011;32800;44.876;13.880;2023-06-10T03:40:10;2.40;;;2.20;;
11418;SDS011;32800;44.876;13.880;2023-06-10T03:42:36;2.10;;;2.00;;
11418;SDS011;32800;44.876;13.880;2023-06-10T03:45:02;2.35;;;2.17;;
11418;SDS011;32800;44.876;13.880;2023-06-10T03:47:33;2.20;;;2.00;;
11418;SDS011;32800;44.876;13.880;2023-06-10T03:49:59;2.38;;;1.95;;
11418;SDS011;32800;44.876;13.880;2023-06-10T03:52:25;2.00;;;1.90;;
11418;SDS011;32800;44.876;13.880;2023-06-10T03:54:50;2.20;;;2.10;;
11418;SDS011;32800;44.876;13.880;2023-06-10T03:57:16;2.38;;;2.17;;
11418;SDS011;32800;44.876;13.880;2023-06-10T03:59:42;2.97;;;2.13;;
11418;SDS011;32800;44.876;13.880;2023-06-10T04:02:07;4.13;;;2.10;;
11418;SDS011;32800;44.876;13.880;2023-06-10T04:04:34;2.70;;;2.20;;
11418;SDS011;32800;44.876;13.880;2023-06-10T04:07:00;1.92;;;1.83;;
11418;SDS011;32800;44.876;13.880;2023-06-10T04:09:25;3.53;;;2.15;;
11418;SDS011;32800;44.876;13.880;2023-06-10T04:11:51;2.30;;;2.10;;
11418;SDS011;32800;44.876;13.880;2023-06-10T04:14:16;2.67;;;2.10;;
11418;SDS011;32800;44.876;13.880;2023-06-10T04:16:42;2.78;;;2.10;;
11418;SDS011;32800;44.876;13.880;2023-06-10T04:19:07;2.28;;;2.13;;
11418;SDS011;32800;44.876;13.880;2023-06-10T04:21:33;2.40;;;2.20;;
11418;SDS011;32800;44.876;13.880;2023-06-10T04:23:59;2.20;;;2.00;;
11418;SDS011;32800;44.876;13.880;2023-06-10T04:26:24;2.47;;;2.28;;
11418;SDS011;32800;44.876;13.880;2023-06-10T04:28:50;2.03;;;1.90;;
11418;SDS011;32800;44.876;13.880;2023-06-10T04:31:16;1.92;;;1.83;;
11418;SDS011;32800;44.876;13.880;2023-06-10T04:33:42;2.15;;;2.00;;
11418;SDS011;32800;44.876;13.880;2023-06-10T04:36:07;2.15;;;1.98;;
11418;SDS011;32800;44.876;13.880;2023-06-10T04:38:33;2.25;;;1.98;;
11418;SDS011;32800;44.876;13.880;2023-06-10T04:40:58;1.90;;;1.80;;
11418;SDS011;32800;44.876;13.880;2023-06-10T04:43:24;3.50;;;2.00;;
11418;SDS011;32800;44.876;13.880;2023-06-10T04:45:49;2.08;;;1.95;;
11418;SDS011;32800;44.876;13.880;2023-06-10T04:48:15;2.28;;;2.08;;
11418;SDS011;32800;44.876;13.880;2023-06-10T04:50:40;2.80;;;2.08;;
11418;SDS011;32800;44.876;13.880;2023-06-10T04:53:06;2.00;;;1.90;;
11418;SDS011;32800;44.876;13.880;2023-06-10T04:55:32;2.55;;;2.35;;
11418;SDS011;32800;44.876;13.880;2023-06-10T04:57:59;2.25;;;2.05;;
11418;SDS011;32800;44.876;13.880;2023-06-10T05:00:24;2.00;;;1.90;;
11418;SDS011;32800;44.876;13.880;2023-06-10T05:02:50;1.88;;;1.73;;
11418;SDS011;32800;44.876;13.880;2023-06-10T05:05:17;2.30;;;2.10;;
11418;SDS011;32800;44.876;13.880;2023-06-10T05:07:43;2.45;;;2.28;;
11418;SDS011;32800;44.876;13.880;2023-06-10T05:10:08;2.00;;;1.90;;
11418;SDS011;32800;44.876;13.880;2023-06-10T05:12:34;2.30;;;2.20;;
11418;SDS011;32800;44.876;13.880;2023-06-10T05:15:00;1.98;;;1.88;;
11418;SDS011;32800;44.876;13.880;2023-06-10T05:17:26;1.92;;;1.75;;
11418;SDS011;32800;44.876;13.880;2023-06-10T05:19:52;1.90;;;1.80;;
11418;SDS011;32800;44.876;13.880;2023-06-10T05:22:18;1.80;;;1.70;;
11418;SDS011;32800;44.876;13.880;2023-06-10T05:24:43;1.98;;;1.88;;
11418;SDS011;32800;44.876;13.880;2023-06-10T05:27:09;2.25;;;2.05;;
11418;SDS011;32800;44.876;13.880;2023-06-10T05:29:35;1.90;;;1.80;;
11418;SDS011;32800;44.876;13.880;2023-06-10T05:32:01;2.30;;;2.10;;
11418;SDS011;32800;44.876;13.880;2023-06-10T05:34:31;1.95;;;1.85;;
11418;SDS011;32800;44.876;13.880;2023-06-10T05:36:56;2.08;;;1.98;;
11418;SDS011;32800;44.876;13.880;2023-06-10T05:39:22;2.33;;;1.73;;
11418;SDS011;32800;44.876;13.880;2023-06-10T05:41:47;1.75;;;1.65;;
11418;SDS011;32800;44.876;13.880;2023-06-10T05:44:13;1.90;;;1.80;;
11418;SDS011;32800;44.876;13.880;2023-06-10T05:46:39;2.42;;;1.83;;
11418;SDS011;32800;44.876;13.880;2023-06-10T05:49:04;1.90;;;1.80;;
11418;SDS011;32800;44.876;13.880;2023-06-10T05:51:30;1.98;;;1.88;;
11418;SDS011;32800;44.876;13.880;2023-06-10T05:53:55;2.10;;;2.00;;
11418;SDS011;32800;44.876;13.880;2023-06-10T05:56:21;2.00;;;1.90;;
11418;SDS011;32800;44.876;13.880;2023-06-10T05:58:47;2.72;;;1.73;;
11418;SDS011;32800;44.876;13.880;2023-06-10T06:01:13;2.20;;;1.80;;
11418;SDS011;32800;44.876;13.880;2023-06-10T06:03:39;2.00;;;1.88;;
11418;SDS011;32800;44.876;13.880;2023-06-10T06:06:05;2.00;;;1.90;;
11418;SDS011;32800;44.876;13.880;2023-06-10T06:08:30;1.98;;;1.88;;
11418;SDS011;32800;44.876;13.880;2023-06-10T06:10:56;1.95;;;1.85;;
11418;SDS011;32800;44.876;13.880;2023-06-10T06:13:22;2.38;;;2.00;;
11418;SDS011;32800;44.876;13.880;2023-06-10T06:15:47;1.90;;;1.80;;
11418;SDS011;32800;44.876;13.880;2023-06-10T06:18:13;2.05;;;1.95;;
11418;SDS011;32800;44.876;13.880;2023-06-10T06:20:38;1.80;;;1.70;;
11418;SDS011;32800;44.876;13.880;2023-06-10T06:23:04;2.28;;;1.88;;
11418;SDS011;32800;44.876;13.880;2023-06-10T06:25:29;1.77;;;1.67;;
11418;SDS011;32800;44.876;13.880;2023-06-10T06:27:55;2.45;;;1.98;;
11418;SDS011;32800;44.876;13.880;2023-06-10T06:30:20;2.53;;;2.20;;
11418;SDS011;32800;44.876;13.880;2023-06-10T06:32:46;1.83;;;1.73;;
11418;SDS011;32800;44.876;13.880;2023-06-10T06:35:11;1.70;;;1.60;;
11418;SDS011;32800;44.876;13.880;2023-06-10T06:37:37;1.90;;;1.80;;
11418;SDS011;32800;44.876;13.880;2023-06-10T06:40:02;2.50;;;2.03;;
11418;SDS011;32800;44.876;13.880;2023-06-10T06:42:28;1.77;;;1.67;;
11418;SDS011;32800;44.876;13.880;2023-06-10T06:44:54;4.07;;;1.90;;
11418;SDS011;32800;44.876;13.880;2023-06-10T06:47:20;2.10;;;2.00;;
11418;SDS011;32800;44.876;13.880;2023-06-10T06:49:46;1.90;;;1.80;;
11418;SDS011;32800;44.876;13.880;2023-06-10T06:52:12;1.70;;;1.60;;
11418;SDS011;32800;44.876;13.880;2023-06-10T06:54:38;1.73;;;1.63;;
11418;SDS011;32800;44.876;13.880;2023-06-10T06:57:03;1.73;;;1.63;;
11418;SDS011;32800;44.876;13.880;2023-06-10T06:59:30;1.80;;;1.70;;
11418;SDS011;32800;44.876;13.880;2023-06-10T07:01:56;2.03;;;1.85;;
11418;SDS011;32800;44.876;13.880;2023-06-10T07:04:21;3.38;;;1.83;;
11418;SDS011;32800;44.876;13.880;2023-06-10T07:06:47;2.63;;;1.67;;
11418;SDS011;32800;44.876;13.880;2023-06-10T07:09:13;2.03;;;1.70;;
11418;SDS011;32800;44.876;13.880;2023-06-10T07:11:39;5.72;;;1.60;;
11418;SDS011;32800;44.876;13.880;2023-06-10T07:14:04;2.05;;;1.90;;
11418;SDS011;32800;44.876;13.880;2023-06-10T07:16:30;1.80;;;1.70;;
11418;SDS011;32800;44.876;13.880;2023-06-10T07:18:55;1.90;;;1.80;;
11418;SDS011;32800;44.876;13.880;2023-06-10T07:21:21;1.88;;;1.70;;
11418;SDS011;32800;44.876;13.880;2023-06-10T07:23:48;2.50;;;1.67;;
11418;SDS011;32800;44.876;13.880;2023-06-10T07:26:14;2.10;;;1.90;;
11418;SDS011;32800;44.876;13.880;2023-06-10T07:28:40;1.98;;;1.88;;
11418;SDS011;32800;44.876;13.880;2023-06-10T07:31:06;2.38;;;2.10;;
11418;SDS011;32800;44.876;13.880;2023-06-10T07:33:32;2.40;;;2.20;;
11418;SDS011;32800;44.876;13.880;2023-06-10T07:35:58;3.22;;;2.28;;
11418;SDS011;32800;44.876;13.880;2023-06-10T07:38:26;7.15;;;2.50;;
11418;SDS011;32800;44.876;13.880;2023-06-10T07:40:52;4.10;;;2.50;;
11418;SDS011;32800;44.876;13.880;2023-06-10T07:43:17;4.03;;;2.70;;
11418;SDS011;32800;44.876;13.880;2023-06-10T07:45:43;5.40;;;2.53;;
11418;SDS011;32800;44.876;13.880;2023-06-10T07:48:09;4.45;;;2.40;;
11418;SDS011;32800;44.876;13.880;2023-06-10T07:50:34;3.97;;;2.60;;
11418;SDS011;32800;44.876;13.880;2023-06-10T07:53:00;3.85;;;2.83;;
11418;SDS011;32800;44.876;13.880;2023-06-10T07:55:26;4.35;;;2.50;;
11418;SDS011;32800;44.876;13.880;2023-06-10T07:57:52;3.53;;;2.20;;
11418;SDS011;32800;44.876;13.880;2023-06-10T08:00:18;3.83;;;2.60;;
11418;SDS011;32800;44.876;13.880;2023-06-10T08:02:44;3.95;;;2.53;;
11418;SDS011;32800;44.876;13.880;2023-06-10T08:05:09;5.43;;;2.38;;
11418;SDS011;32800;44.876;13.880;2023-06-10T08:07:35;115.80;;;6.18;;
11418;SDS011;32800;44.876;13.880;2023-06-10T08:10:01;7.50;;;2.35;;
11418;SDS011;32800;44.876;13.880;2023-06-10T08:12:27;5.82;;;2.50;;
11418;SDS011;32800;44.876;13.880;2023-06-10T08:14:53;3.38;;;2.60;;
11418;SDS011;32800;44.876;13.880;2023-06-10T08:17:20;3.15;;;2.33;;
11418;SDS011;32800;44.876;13.880;2023-06-10T08:19:45;4.72;;;2.47;;
11418;SDS011;32800;44.876;13.880;2023-06-10T08:22:11;6.80;;;2.78;;
11418;SDS011;32800;44.876;13.880;2023-06-10T08:24:37;2.90;;;2.65;;
11418;SDS011;32800;44.876;13.880;2023-06-10T08:27:02;4.78;;;2.83;;
11418;SDS011;32800;44.876;13.880;2023-06-10T08:29:28;4.40;;;2.92;;
11418;SDS011;32800;44.876;13.880;2023-06-10T08:31:56;4.93;;;2.97;;
11418;SDS011;32800;44.876;13.880;2023-06-10T08:34:21;3.90;;;2.70;;
11418;SDS011;32800;44.876;13.880;2023-06-10T08:36:47;6.72;;;2.45;;
11418;SDS011;32800;44.876;13.880;2023-06-10T08:39:17;4.57;;;2.92;;
11418;SDS011;32800;44.876;13.880;2023-06-10T08:41:43;4.05;;;2.75;;
11418;SDS011;32800;44.876;13.880;2023-06-10T08:44:13;4.15;;;2.60;;
11418;SDS011;32800;44.876;13.880;2023-06-10T08:46:47;4.47;;;2.88;;
11418;SDS011;32800;44.876;13.880;2023-06-10T08:49:14;3.05;;;2.75;;
11418;SDS011;32800;44.876;13.880;2023-06-10T08:51:43;9.13;;;2.55;;
11418;SDS011;32800;44.876;13.880;2023-06-10T08:54:49;4.03;;;2.72;;
11418;SDS011;32800;44.876;13.880;2023-06-10T08:57:06;6.55;;;2.40;;
11418;SDS011;32800;44.876;13.880;2023-06-10T08:59:31;6.82;;;2.40;;
11418;SDS011;32800;44.876;13.880;2023-06-10T09:01:57;6.28;;;2.75;;
11418;SDS011;32800;44.876;13.880;2023-06-10T09:04:23;5.03;;;2.30;;
11418;SDS011;32800;44.876;13.880;2023-06-10T09:06:49;5.15;;;2.50;;
11418;SDS011;32800;44.876;13.880;2023-06-10T09:09:16;4.95;;;2.33;;
11418;SDS011;32800;44.876;13.880;2023-06-10T09:11:42;4.22;;;2.28;;
11418;SDS011;32800;44.876;13.880;2023-06-10T09:14:08;5.85;;;3.13;;
11418;SDS011;32800;44.876;13.880;2023-06-10T09:16:34;7.93;;;2.78;;
11418;SDS011;32800;44.876;13.880;2023-06-10T09:18:59;5.45;;;2.60;;
11418;SDS011;32800;44.876;13.880;2023-06-10T09:21:25;4.50;;;2.30;;
11418;SDS011;32800;44.876;13.880;2023-06-10T09:23:51;6.15;;;2.47;;
11418;SDS011;32800;44.876;13.880;2023-06-10T09:26:17;6.22;;;2.58;;
11418;SDS011;32800;44.876;13.880;2023-06-10T09:28:49;3.28;;;2.03;;
11418;SDS011;32800;44.876;13.880;2023-06-10T09:31:17;7.65;;;3.22;;
11418;SDS011;32800;44.876;13.880;2023-06-10T09:33:46;8.95;;;2.60;;
11418;SDS011;32800;44.876;13.880;2023-06-10T09:36:20;13.32;;;2.60;;
11418;SDS011;32800;44.876;13.880;2023-06-10T09:38:47;7.65;;;2.72;;
11418;SDS011;32800;44.876;13.880;2023-06-10T09:41:15;15.55;;;3.13;;
11418;SDS011;32800;44.876;13.880;2023-06-10T09:43:44;7.25;;;2.78;;
11418;SDS011;32800;44.876;13.880;2023-06-10T09:46:15;9.80;;;2.55;;
11418;SDS011;32800;44.876;13.880;2023-06-10T09:48:42;4.30;;;2.40;;
11418;SDS011;32800;44.876;13.880;2023-06-10T09:51:09;7.47;;;2.33;;
11418;SDS011;32800;44.876;13.880;2023-06-10T09:53:35;3.83;;;2.50;;
11418;SDS011;32800;44.876;13.880;2023-06-10T09:56:01;3.03;;;2.47;;
11418;SDS011;32800;44.876;13.880;2023-06-10T09:58:34;2.83;;;2.15;;
11418;SDS011;32800;44.876;13.880;2023-06-10T10:01:06;8.43;;;2.25;;
11418;SDS011;32800;44.876;13.880;2023-06-10T10:03:34;2.50;;;2.30;;
11418;SDS011;32800;44.876;13.880;2023-06-10T10:06:08;4.47;;;2.83;;
11418;SDS011;32800;44.876;13.880;2023-06-10T10:08:34;4.38;;;2.63;;
11418;SDS011;32800;44.876;13.880;2023-06-10T10:11:00;6.00;;;3.13;;
11418;SDS011;32800;44.876;13.880;2023-06-10T10:13:26;6.80;;;3.05;;
11418;SDS011;32800;44.876;13.880;2023-06-10T10:15:53;8.65;;;3.58;;
11418;SDS011;32800;44.876;13.880;2023-06-10T10:18:20;8.88;;;4.40;;
11418;SDS011;32800;44.876;13.880;2023-06-10T10:20:53;6.68;;;4.80;;
11418;SDS011;32800;44.876;13.880;2023-06-10T10:24:03;7.90;;;5.57;;
11418;SDS011;32800;44.876;13.880;2023-06-10T10:26:21;5.85;;;4.47;;
11418;SDS011;32800;44.876;13.880;2023-06-10T10:28:53;7.65;;;4.40;;
11418;SDS011;32800;44.876;13.880;2023-06-10T10:31:41;9.48;;;4.15;;
11418;SDS011;32800;44.876;13.880;2023-06-10T10:34:09;6.32;;;4.32;;
11418;SDS011;32800;44.876;13.880;2023-06-10T10:36:37;6.60;;;4.57;;
11418;SDS011;32800;44.876;13.880;2023-06-10T10:39:07;5.15;;;3.90;;
11418;SDS011;32800;44.876;13.880;2023-06-10T10:41:32;6.32;;;3.90;;
11418;SDS011;32800;44.876;13.880;2023-06-10T10:43:58;6.43;;;4.07;;
11418;SDS011;32800;44.876;13.880;2023-06-10T10:46:25;4.75;;;4.28;;
11418;SDS011;32800;44.876;13.880;2023-06-10T10:48:53;5.70;;;4.32;;
11418;SDS011;32800;44.876;13.880;2023-06-10T10:51:19;6.28;;;4.82;;
11418;SDS011;32800;44.876;13.880;2023-06-10T10:54:09;7.07;;;5.53;;
11418;SDS011;32800;44.876;13.880;2023-06-10T10:56:37;11.88;;;6.68;;
11418;SDS011;32800;44.876;13.880;2023-06-10T10:59:06;8.23;;;6.80;;
11418;SDS011;32800;44.876;13.880;2023-06-10T11:04:17;8.23;;;6.70;;
11418;SDS011;32800;44.876;13.880;2023-06-10T11:06:55;7.75;;;6.88;;
11418;SDS011;32800;44.876;13.880;2023-06-10T11:09:31;10.25;;;6.57;;
11418;SDS011;32800;44.876;13.880;2023-06-10T11:11:57;8.68;;;6.43;;
11418;SDS011;32800;44.876;13.880;2023-06-10T11:14:26;7.30;;;6.03;;
11418;SDS011;32800;44.876;13.880;2023-06-10T11:16:58;7.50;;;5.95;;
11418;SDS011;32800;44.876;13.880;2023-06-10T11:19:34;5.70;;;4.97;;
11418;SDS011;32800;44.876;13.880;2023-06-10T11:22:01;6.78;;;4.95;;
11418;SDS011;32800;44.876;13.880;2023-06-10T11:24:31;4.60;;;4.20;;
11418;SDS011;32800;44.876;13.880;2023-06-10T11:32:45;4.88;;;3.92;;
11418;SDS011;32800;44.876;13.880;2023-06-10T11:35:16;4.97;;;4.57;;
11418;SDS011;32800;44.876;13.880;2023-06-10T11:37:44;4.72;;;4.30;;
11418;SDS011;32800;44.876;13.880;2023-06-10T11:40:09;5.63;;;4.57;;
11418;SDS011;32800;44.876;13.880;2023-06-10T11:42:38;5.35;;;4.85;;
11418;SDS011;32800;44.876;13.880;2023-06-10T11:45:05;5.35;;;4.85;;
11418;SDS011;32800;44.876;13.880;2023-06-10T11:47:33;4.95;;;4.30;;
11418;SDS011;32800;44.876;13.880;2023-06-10T11:49:59;4.80;;;4.32;;
11418;SDS011;32800;44.876;13.880;2023-06-10T11:52:31;4.97;;;4.45;;
11418;SDS011;32800;44.876;13.880;2023-06-10T11:54:58;4.85;;;4.35;;
11418;SDS011;32800;44.876;13.880;2023-06-10T11:57:24;5.90;;;4.60;;
11418;SDS011;32800;44.876;13.880;2023-06-10T11:59:50;5.25;;;4.75;;
11418;SDS011;32800;44.876;13.880;2023-06-10T12:02:15;5.95;;;4.70;;
11418;SDS011;32800;44.876;13.880;2023-06-10T12:04:41;4.70;;;4.30;;
11418;SDS011;32800;44.876;13.880;2023-06-10T12:07:07;5.35;;;4.10;;
11418;SDS011;32800;44.876;13.880;2023-06-10T12:09:32;5.22;;;4.68;;
11418;SDS011;32800;44.876;13.880;2023-06-10T12:17:23;4.45;;;3.92;;
11418;SDS011;32800;44.876;13.880;2023-06-10T12:20:03;5.85;;;4.65;;
11418;SDS011;32800;44.876;13.880;2023-06-10T12:22:43;4.75;;;4.32;;
11418;SDS011;32800;44.876;13.880;2023-06-10T12:25:09;6.25;;;4.40;;
11418;SDS011;32800;44.876;13.880;2023-06-10T12:27:35;4.82;;;4.00;;
11418;SDS011;32800;44.876;13.880;2023-06-10T12:30:02;4.85;;;3.70;;
11418;SDS011;32800;44.876;13.880;2023-06-10T12:35:04;4.35;;;3.92;;
11418;SDS011;32800;44.876;13.880;2023-06-10T12:37:30;5.65;;;4.10;;
11418;SDS011;32800;44.876;13.880;2023-06-10T12:39:59;4.30;;;3.90;;
11418;SDS011;32800;44.876;13.880;2023-06-10T12:42:26;3.72;;;3.42;;
11418;SDS011;32800;44.876;13.880;2023-06-10T12:44:55;5.40;;;3.70;;
11418;SDS011;32800;44.876;13.880;2023-06-10T12:47:28;3.90;;;3.58;;
11418;SDS011;32800;44.876;13.880;2023-06-10T12:50:00;5.00;;;3.80;;
11418;SDS011;32800;44.876;13.880;2023-06-10T12:52:26;4.00;;;3.60;;
11418;SDS011;32800;44.876;13.880;2023-06-10T12:54:52;4.03;;;3.63;;
11418;SDS011;32800;44.876;13.880;2023-06-10T12:57:19;4.00;;;3.70;;
11418;SDS011;32800;44.876;13.880;2023-06-10T12:59:45;4.60;;;3.80;;
11418;SDS011;32800;44.876;13.880;2023-06-10T13:02:15;4.57;;;3.75;;
11418;SDS011;32800;44.876;13.880;2023-06-10T13:04:44;3.70;;;3.40;;
11418;SDS011;32800;44.876;13.880;2023-06-10T13:07:10;4.25;;;3.72;;
11418;SDS011;32800;44.876;13.880;2023-06-10T13:09:36;4.80;;;3.83;;
11418;SDS011;32800;44.876;13.880;2023-06-10T13:12:02;5.43;;;3.72;;
11418;SDS011;32800;44.876;13.880;2023-06-10T13:14:27;4.25;;;3.55;;
11418;SDS011;32800;44.876;13.880;2023-06-10T13:16:54;3.70;;;3.40;;
11418;SDS011;32800;44.876;13.880;2023-06-10T13:19:20;4.45;;;3.50;;
11418;SDS011;32800;44.876;13.880;2023-06-10T13:21:49;3.80;;;3.50;;
11418;SDS011;32800;44.876;13.880;2023-06-10T13:24:14;4.35;;;3.63;;
11418;SDS011;32800;44.876;13.880;2023-06-10T13:26:40;4.25;;;3.85;;
11418;SDS011;32800;44.876;13.880;2023-06-10T13:29:05;5.32;;;3.72;;
11418;SDS011;32800;44.876;13.880;2023-06-10T13:31:33;4.60;;;3.97;;
11418;SDS011;32800;44.876;13.880;2023-06-10T13:33:58;4.25;;;3.88;;
11418;SDS011;32800;44.876;13.880;2023-06-10T13:36:24;4.03;;;3.38;;
11418;SDS011;32800;44.876;13.880;2023-06-10T13:38:49;7.35;;;3.65;;
11418;SDS011;32800;44.876;13.880;2023-06-10T13:41:15;3.90;;;3.22;;
11418;SDS011;32800;44.876;13.880;2023-06-10T13:43:41;4.03;;;3.63;;
11418;SDS011;32800;44.876;13.880;2023-06-10T13:46:06;6.18;;;3.60;;
11418;SDS011;32800;44.876;13.880;2023-06-10T13:48:32;6.75;;;3.55;;
11418;SDS011;32800;44.876;13.880;2023-06-10T13:50:57;4.32;;;3.78;;
11418;SDS011;32800;44.876;13.880;2023-06-10T13:53:24;4.45;;;3.78;;
11418;SDS011;32800;44.876;13.880;2023-06-10T13:55:50;4.57;;;3.33;;
11418;SDS011;32800;44.876;13.880;2023-06-10T13:58:15;3.60;;;3.30;;
11418;SDS011;32800;44.876;13.880;2023-06-10T14:00:41;5.63;;;3.78;;
11418;SDS011;32800;44.876;13.880;2023-06-10T14:03:06;5.07;;;3.97;;
11418;SDS011;32800;44.876;13.880;2023-06-10T14:05:32;5.57;;;3.63;;
11418;SDS011;32800;44.876;13.880;2023-06-10T14:07:58;4.10;;;3.30;;
11418;SDS011;32800;44.876;13.880;2023-06-10T14:10:24;5.93;;;4.18;;
11418;SDS011;32800;44.876;13.880;2023-06-10T14:12:52;5.30;;;3.70;;
11418;SDS011;32800;44.876;13.880;2023-06-10T14:15:18;4.63;;;3.70;;
11418;SDS011;32800;44.876;13.880;2023-06-10T14:17:44;4.13;;;3.70;;
11418;SDS011;32800;44.876;13.880;2023-06-10T14:20:09;5.38;;;3.78;;
11418;SDS011;32800;44.876;13.880;2023-06-10T14:22:35;5.13;;;3.97;;
11418;SDS011;32800;44.876;13.880;2023-06-10T14:25:01;4.22;;;3.80;;
11418;SDS011;32800;44.876;13.880;2023-06-10T14:27:26;6.32;;;3.85;;
11418;SDS011;32800;44.876;13.880;2023-06-10T14:29:52;6.25;;;3.85;;
11418;SDS011;32800;44.876;13.880;2023-06-10T14:32:17;5.00;;;4.03;;
11418;SDS011;32800;44.876;13.880;2023-06-10T14:34:43;5.38;;;4.15;;
11418;SDS011;32800;44.876;13.880;2023-06-10T14:37:09;5.00;;;4.60;;
11418;SDS011;32800;44.876;13.880;2023-06-10T14:39:35;6.38;;;4.75;;
11418;SDS011;32800;44.876;13.880;2023-06-10T14:42:01;5.80;;;4.20;;
11418;SDS011;32800;44.876;13.880;2023-06-10T14:44:27;6.60;;;4.60;;
11418;SDS011;32800;44.876;13.880;2023-06-10T14:46:52;6.22;;;4.78;;
11418;SDS011;32800;44.876;13.880;2023-06-10T14:49:18;4.85;;;4.35;;
11418;SDS011;32800;44.876;13.880;2023-06-10T14:51:43;7.25;;;4.80;;
11418;SDS011;32800;44.876;13.880;2023-06-10T14:54:09;5.85;;;4.97;;
11418;SDS011;32800;44.876;13.880;2023-06-10T14:56:35;5.85;;;5.32;;